RNDO2: Randlett 3N(Deep Red Rn)

Data processed at Sun May 24 23:49:47 2015 Central Daylight Time


All information presented herein is the property of the government of the United States of America and may be revised or deleted at any time without prior notice.
Dissemination of this information without the expressed written consent of the Public Affairs Office, Tulsa District U.S. Army Corps of Engineers is strictly prohibited.
These data are gathered electronically and, as presented, have not undergone any form of quality control. These data are not guaranteed to be valid or correct.
Go to home page.
Go to station list.
Go to station map.

Upstream stations:

Downstream station: Previous Day
Next Day
Current Day

Display graphics.
Display DCP transmissions.


    
    SHEF ID:       RNDO2     Randlett 3N(Deep Red Rn)
    STATION TYPE:  STREAM GAGE
    Regulation Limits:  Stage =   20.00, Flow =    3026
    
                    STAGE  RIV-FLOW   VOLTAGE
                     FEET       CFS     VOLTS
                     GOES      GOES      GOES
       (Cen)
    05/24 01:00     23.13      5219     12.57
    05/24 02:00     23.13      5219     12.57
    05/24 03:00     23.15      5267     12.57
    05/24 04:00     23.14      5243     12.57
    05/24 05:00     23.15      5267     12.57
    05/24 06:00     23.15      5267     12.57
    05/24 07:00     23.16      5291     12.49
    05/24 08:00     23.17      5315     12.49
    05/24 09:00     23.19      5363     12.49
    05/24 10:00     23.20      5387     12.65
    05/24 11:00     23.23      5461     13.05
    05/24 12:00     23.25      5510     13.44
    05/24 13:00     23.28      5585     13.29
    05/24 14:00     23.31      5660     13.29
    05/24 15:00     23.33      5711     13.37
    05/24 16:00     23.37      5815     13.21
    05/24 17:00     23.38      5841     13.21
    05/24 18:00     23.41      5920     13.21
    05/24 19:00     23.43      5973     13.05
    05/24 20:00     23.45      6026     12.81
    05/24 21:00     23.47      6080     12.65
    05/24 22:00     23.48      6107     12.57
    05/24 23:00     23.48      6107     12.57
    05/25 00:00      ----      ----      ----